Time;durP1;ratioP1;P1;durP2;ratioP2;P2;SDS_P1;SDS_P2;PMS_P1;PMS_P2;Temp;Humidity;BMP_temperature;BMP_pressure;BME280_temperature;BME280_humidity;BME280_pressure;Samples;Min_cycle;Max_cycle;Signal;HPM_P1;HPM_P2
2022/01/29 00:01:34;;;;;;;75.63;53.00;;;6.90;99.90;;;;;;5066782;28;20079;-73
2022/01/29 00:03:59;;;;;;;83.82;52.80;;;7.00;99.90;;;;;;5069925;28;20087;-73
2022/01/29 00:06:25;;;;;;;79.22;53.83;;;6.90;99.90;;;;;;5067374;28;20097;-73
2022/01/29 00:08:53;;;;;;;72.43;53.60;;;7.00;99.90;;;;;;5072347;28;20055;-74
2022/01/29 00:11:20;;;;;;;79.43;54.45;;;7.00;99.90;;;;;;5066467;28;20479;-73
2022/01/29 00:13:46;;;;;;;75.10;53.75;;;7.00;99.90;;;;;;5067946;28;20048;-73
2022/01/29 00:16:11;;;;;;;73.68;53.00;;;7.00;99.90;;;;;;5063152;28;20060;-74
2022/01/29 00:18:37;;;;;;;75.43;54.15;;;7.00;99.90;;;;;;5077291;28;20159;-73
2022/01/29 00:21:03;;;;;;;74.63;54.05;;;7.00;99.90;;;;;;5069001;28;20045;-73
2022/01/29 00:23:29;;;;;;;72.47;52.78;;;7.00;99.90;;;;;;5067997;28;20040;-74
2022/01/29 00:25:54;;;;;;;78.75;54.45;;;7.00;99.90;;;;;;5089665;28;20045;-74
2022/01/29 00:28:20;;;;;;;78.95;53.30;;;7.00;99.90;;;;;;5098261;28;20131;-73
2022/01/29 00:30:46;;;;;;;72.82;53.20;;;7.00;99.90;;;;;;5068231;28;20052;-73
2022/01/29 00:33:12;;;;;;;75.00;51.90;;;7.00;99.90;;;;;;5070214;28;20055;-73
2022/01/29 00:35:39;;;;;;;70.88;52.17;;;7.00;99.90;;;;;;5068121;28;20041;-73
2022/01/29 00:38:06;;;;;;;76.03;53.13;;;7.00;99.90;;;;;;5092600;28;20080;-74
2022/01/29 00:40:33;;;;;;;74.10;51.75;;;7.00;99.90;;;;;;5068702;28;20080;-73
2022/01/29 00:42:59;;;;;;;75.93;52.38;;;7.00;99.90;;;;;;5065169;28;20080;-73
2022/01/29 00:45:25;;;;;;;77.27;53.27;;;7.00;99.90;;;;;;5062503;28;20423;-74
2022/01/29 00:47:51;;;;;;;68.93;51.63;;;7.00;99.90;;;;;;5066034;28;20148;-73
2022/01/29 00:50:17;;;;;;;68.93;51.08;;;7.10;99.90;;;;;;5069645;28;20134;-73
2022/01/29 00:52:43;;;;;;;69.43;51.72;;;7.10;99.90;;;;;;5079852;28;20484;-73
2022/01/29 00:55:10;;;;;;;78.00;52.30;;;7.10;99.90;;;;;;5058007;28;20083;-73
2022/01/29 00:57:38;;;;;;;;;;;7.10;99.90;;;;;;5075140;28;20098;-73
2022/01/29 01:00:06;;;;;;;74.05;51.90;;;7.00;99.90;;;;;;5063942;28;20011;-74
2022/01/29 01:02:31;;;;;;;75.50;52.63;;;7.00;99.90;;;;;;5090423;28;20052;-73
2022/01/29 01:04:57;;;;;;;73.05;54.55;;;7.00;99.90;;;;;;5076389;28;20044;-73
2022/01/29 01:07:23;;;;;;;77.50;54.30;;;7.00;99.90;;;;;;5066858;28;20083;-73
2022/01/29 01:09:48;;;;;;;77.13;54.50;;;7.00;99.90;;;;;;5068511;28;20071;-73
2022/01/29 01:12:14;;;;;;;80.13;54.92;;;7.00;99.90;;;;;;5065311;28;20060;-73
2022/01/29 01:14:39;;;;;;;83.20;56.15;;;7.00;99.90;;;;;;5068390;28;20395;-73
2022/01/29 01:17:05;;;;;;;77.20;55.75;;;7.00;99.90;;;;;;5063982;28;20032;-74
2022/01/29 01:19:31;;;;;;;77.35;56.13;;;7.00;99.90;;;;;;5065713;28;20131;-73
2022/01/29 01:21:57;;;;;;;76.60;56.92;;;7.00;99.90;;;;;;5067542;28;20071;-72
2022/01/29 01:24:24;;;;;;;81.28;55.05;;;7.00;99.90;;;;;;5069942;28;20087;-73
2022/01/29 01:26:50;;;;;;;76.45;54.90;;;6.90;99.90;;;;;;5058629;28;20047;-74
2022/01/29 01:29:17;;;;;;;82.63;55.70;;;6.90;99.90;;;;;;5099668;28;20060;-74
2022/01/29 01:31:45;;;;;;;84.93;57.22;;;6.90;99.90;;;;;;5076399;28;20068;-73
2022/01/29 01:34:11;;;;;;;81.90;57.67;;;6.90;99.90;;;;;;5092359;28;20093;-73
2022/01/29 01:36:44;;;;;;;81.40;56.13;;;6.90;99.90;;;;;;5080580;28;20045;-73
2022/01/29 01:39:13;;;;;;;82.95;57.42;;;6.90;99.90;;;;;;5087516;28;20088;-73
2022/01/29 01:41:42;;;;;;;81.82;57.13;;;6.90;99.90;;;;;;5062115;28;20053;-73
2022/01/29 01:44:13;;;;;;;78.38;55.45;;;6.80;99.90;;;;;;5050517;28;20049;-73
2022/01/29 01:46:38;;;;;;;83.30;56.05;;;6.90;99.90;;;;;;5063239;28;20617;-73
2022/01/29 01:49:04;;;;;;;81.45;57.15;;;6.80;99.90;;;;;;5060086;28;20037;-73
2022/01/29 01:51:30;;;;;;;78.85;55.33;;;6.90;99.90;;;;;;5054235;28;20037;-73
2022/01/29 01:53:56;;;;;;;76.20;54.90;;;6.90;99.90;;;;;;5087051;28;20072;-74
2022/01/29 01:56:21;;;;;;;77.68;54.97;;;6.90;99.90;;;;;;5073691;28;20048;-74
2022/01/29 01:58:47;;;;;;;78.10;54.45;;;6.90;99.90;;;;;;5077666;28;20053;-73
2022/01/29 02:01:13;;;;;;;75.40;52.55;;;6.80;99.90;;;;;;5063748;28;20056;-73
2022/01/29 02:03:39;;;;;;;79.75;54.05;;;6.90;99.90;;;;;;5064726;28;20040;-73
2022/01/29 02:06:05;;;;;;;78.65;53.47;;;6.90;99.90;;;;;;5082418;28;20155;-74
2022/01/29 02:08:31;;;;;;;77.63;53.53;;;6.90;99.90;;;;;;5060377;28;20475;-74
2022/01/29 02:11:04;;;;;;;78.22;53.58;;;6.90;99.90;;;;;;5068289;28;20049;-73
2022/01/29 02:13:30;;;;;;;79.72;52.17;;;6.90;99.90;;;;;;5091921;28;20048;-73
2022/01/29 02:15:57;;;;;;;77.32;53.88;;;6.90;99.90;;;;;;5066759;28;20454;-74
2022/01/29 02:18:23;;;;;;;80.40;53.58;;;6.90;99.90;;;;;;5066444;28;20083;-73
2022/01/29 02:20:49;;;;;;;77.50;51.30;;;6.90;99.90;;;;;;5062815;28;20040;-73
2022/01/29 02:23:17;;;;;;;78.40;49.38;;;6.90;99.90;;;;;;5055658;28;20108;-73
2022/01/29 02:25:49;;;;;;;72.07;49.17;;;6.90;99.90;;;;;;5063693;28;20040;-74
2022/01/29 02:28:20;;;;;;;70.22;48.75;;;6.90;99.90;;;;;;5084228;28;20876;-73
2022/01/29 02:31:03;;;;;;;73.90;46.50;;;6.90;99.90;;;;;;5069940;28;20052;-73
2022/01/29 02:33:31;;;;;;;64.50;46.20;;;7.00;99.90;;;;;;5064154;28;20070;-74
2022/01/29 02:35:57;;;;;;;72.30;45.92;;;7.00;99.90;;;;;;5053862;28;20048;-73
2022/01/29 02:38:25;;;;;;;66.03;44.80;;;7.00;99.90;;;;;;5064710;28;20052;-73
2022/01/29 02:40:57;;;;;;;;;;;7.00;99.90;;;;;;5063319;28;20044;-74
2022/01/29 02:43:27;;;;;;;70.25;44.08;;;7.00;99.90;;;;;;5065285;28;19920;-73
2022/01/29 02:45:53;;;;;;;63.53;44.38;;;7.00;99.90;;;;;;5063360;28;20193;-74
2022/01/29 02:48:23;;;;;;;69.60;43.28;;;7.00;99.90;;;;;;5063972;28;20067;-74
2022/01/29 02:50:49;;;;;;;64.20;43.65;;;7.00;99.90;;;;;;5087869;28;20119;-73
2022/01/29 02:53:15;;;;;;;64.72;43.25;;;7.10;99.90;;;;;;5066305;28;20186;-73
2022/01/29 02:55:41;;;;;;;68.40;45.15;;;7.00;99.90;;;;;;5062321;28;20063;-73
2022/01/29 02:58:07;;;;;;;65.53;42.70;;;7.10;99.90;;;;;;5069055;28;20052;-73
2022/01/29 03:00:33;;;;;;;68.28;44.35;;;7.10;99.90;;;;;;5076311;28;20060;-73
2022/01/29 03:02:59;;;;;;;66.38;43.58;;;7.10;99.90;;;;;;5076489;28;20107;-74
2022/01/29 03:05:24;;;;;;;68.95;44.63;;;7.10;99.90;;;;;;5095515;28;20052;-73
2022/01/29 03:07:50;;;;;;;70.13;43.28;;;7.10;99.90;;;;;;5077720;28;20044;-73
2022/01/29 03:10:16;;;;;;;64.10;42.65;;;7.10;99.90;;;;;;5066668;28;20055;-73
2022/01/29 03:12:42;;;;;;;67.65;44.60;;;7.20;99.90;;;;;;5067971;28;20430;-73
2022/01/29 03:15:09;;;;;;;71.15;44.33;;;7.20;99.90;;;;;;5065903;28;20067;-73
2022/01/29 03:17:35;;;;;;;67.13;46.03;;;7.20;99.90;;;;;;5081981;28;20068;-74
2022/01/29 03:20:01;;;;;;;70.47;43.20;;;7.20;99.90;;;;;;5078772;28;20136;-73
2022/01/29 03:22:26;;;;;;;67.38;43.53;;;7.20;99.90;;;;;;5077559;28;20140;-74
2022/01/29 03:24:52;;;;;;;70.57;44.72;;;7.20;99.90;;;;;;5047323;28;20053;-74
2022/01/29 03:27:18;;;;;;;64.30;42.35;;;7.20;99.90;;;;;;5063411;28;20097;-74
2022/01/29 03:29:43;;;;;;;66.40;42.53;;;7.20;99.90;;;;;;5062808;28;20090;-73
2022/01/29 03:32:09;;;;;;;69.88;44.53;;;7.20;99.90;;;;;;5059653;28;20032;-74
2022/01/29 03:34:35;;;;;;;67.55;44.00;;;7.20;99.90;;;;;;5063671;28;20052;-73
2022/01/29 03:37:02;;;;;;;69.57;43.75;;;7.20;99.90;;;;;;5078814;28;20049;-73
2022/01/29 03:39:28;;;;;;;62.10;43.28;;;7.20;99.90;;;;;;5062854;28;20048;-73
2022/01/29 03:41:59;;;;;;;66.95;43.17;;;7.30;99.90;;;;;;5059113;28;20040;-73
2022/01/29 03:44:25;;;;;;;68.88;43.30;;;7.30;99.90;;;;;;5064379;28;20132;-73
2022/01/29 03:46:51;;;;;;;69.72;42.40;;;7.30;99.90;;;;;;5062513;28;20131;-74
2022/01/29 03:49:16;;;;;;;68.68;43.90;;;7.30;99.90;;;;;;5062700;28;20045;-73
2022/01/29 03:51:42;;;;;;;69.03;42.50;;;7.30;99.90;;;;;;5059852;28;20048;-74
2022/01/29 03:54:07;;;;;;;63.08;41.72;;;7.30;99.90;;;;;;5072397;28;20056;-73
2022/01/29 03:56:33;;;;;;;62.70;41.08;;;7.30;99.90;;;;;;5058515;28;20041;-73
2022/01/29 03:58:58;;;;;;;65.00;40.95;;;7.30;99.90;;;;;;5063139;28;20107;-74
2022/01/29 04:01:24;;;;;;;69.20;43.28;;;7.30;99.90;;;;;;5053670;28;20053;-73
2022/01/29 04:03:50;;;;;;;68.97;41.90;;;7.30;99.90;;;;;;5072676;28;20045;-73
2022/01/29 04:06:15;;;;;;;65.78;40.58;;;7.30;99.90;;;;;;5045929;28;20473;-73
2022/01/29 04:08:42;;;;;;;65.18;41.33;;;7.30;99.90;;;;;;5066339;28;20094;-73
2022/01/29 04:11:11;;;;;;;70.82;43.03;;;7.30;99.90;;;;;;5059929;28;20052;-74
2022/01/29 04:13:43;;;;;;;71.72;42.90;;;7.30;99.90;;;;;;5063938;28;20044;-73
2022/01/29 04:16:11;;;;;;;72.10;43.55;;;7.30;99.90;;;;;;5056545;28;20084;-73
2022/01/29 04:18:36;;;;;;;74.78;43.28;;;7.30;99.90;;;;;;5062378;28;20059;-73
2022/01/29 04:21:04;;;;;;;77.75;45.08;;;7.40;99.90;;;;;;5075730;28;20044;-73
2022/01/29 04:23:30;;;;;;;73.55;44.90;;;7.40;99.90;;;;;;5064091;28;20048;-73
2022/01/29 04:25:55;;;;;;;77.95;45.78;;;7.40;99.90;;;;;;5068187;28;20056;-73
2022/01/29 04:28:29;;;;;;;79.07;44.78;;;7.40;99.90;;;;;;5060830;28;20041;-74
2022/01/29 04:31:01;;;;;;;79.85;46.00;;;7.40;99.90;;;;;;5046454;28;20064;-73
2022/01/29 04:33:30;;;;;;;78.70;45.90;;;7.40;99.90;;;;;;5056749;28;20516;-73
2022/01/29 04:36:01;;;;;;;79.82;45.45;;;7.40;99.90;;;;;;5062529;28;20087;-74
2022/01/29 04:38:28;;;;;;;88.30;46.70;;;7.40;99.90;;;;;;5081902;28;20123;-74
2022/01/29 04:40:56;;;;;;;84.47;45.92;;;7.40;99.90;;;;;;5063940;28;20079;-73
2022/01/29 04:43:21;;;;;;;86.18;47.25;;;7.40;99.90;;;;;;5063902;28;20433;-73
2022/01/29 04:45:47;;;;;;;85.20;47.60;;;7.40;99.90;;;;;;5061851;28;20056;-74
2022/01/29 04:48:13;;;;;;;93.32;49.20;;;7.40;99.90;;;;;;5070091;28;20105;-73
2022/01/29 04:50:39;;;;;;;89.93;47.05;;;7.40;99.90;;;;;;5067313;28;20044;-73
2022/01/29 04:53:05;;;;;;;86.00;47.70;;;7.50;99.90;;;;;;5073350;28;20046;-73
2022/01/29 04:55:32;;;;;;;90.22;47.20;;;7.40;99.90;;;;;;5068838;28;20080;-74
2022/01/29 04:57:58;;;;;;;86.18;47.20;;;7.40;99.90;;;;;;5067013;28;20044;-73
2022/01/29 05:00:23;;;;;;;92.82;47.20;;;7.50;99.90;;;;;;5057257;28;20444;-74
2022/01/29 05:02:52;;;;;;;88.60;48.58;;;7.50;99.90;;;;;;5064109;28;20032;-74
2022/01/29 05:05:18;;;;;;;93.95;48.65;;;7.50;99.90;;;;;;5064482;28;20044;-74
2022/01/29 05:07:43;;;;;;;80.57;46.65;;;7.50;99.90;;;;;;5063354;28;20093;-74
2022/01/29 05:10:10;;;;;;;85.55;48.38;;;7.50;99.90;;;;;;5062030;28;20048;-74
2022/01/29 05:12:46;;;;;;;78.30;46.42;;;7.50;99.90;;;;;;5057921;28;20052;-74
2022/01/29 05:15:34;;;;;;;77.43;47.10;;;7.60;99.90;;;;;;5067176;28;20083;-73
2022/01/29 05:28:56;;;;;;;79.63;45.53;;;7.60;99.90;;;;;;5048878;28;20092;-73
2022/01/29 05:31:21;;;;;;;81.07;46.33;;;7.60;99.90;;;;;;5053167;28;20043;-73
2022/01/29 05:33:47;;;;;;;81.50;46.45;;;7.60;99.90;;;;;;5084888;28;20096;-74
2022/01/29 05:36:13;;;;;;;82.30;47.20;;;7.60;99.90;;;;;;5065330;28;20041;-74
2022/01/29 05:38:39;;;;;;;79.68;47.05;;;7.60;99.90;;;;;;5067011;28;20051;-74
2022/01/29 05:41:05;;;;;;;83.93;46.42;;;7.60;99.90;;;;;;5056480;28;20057;-74
2022/01/29 05:43:31;;;;;;;77.40;47.40;;;7.70;99.90;;;;;;5065899;28;20700;-74
2022/01/29 05:45:56;;;;;;;77.00;45.42;;;7.70;99.90;;;;;;5062120;28;20055;-74
2022/01/29 05:48:22;;;;;;;75.28;46.70;;;7.70;99.90;;;;;;5068116;28;20052;-73
2022/01/29 05:50:47;;;;;;;70.68;42.97;;;7.70;99.90;;;;;;5070219;28;20131;-73
2022/01/29 05:53:13;;;;;;;63.45;42.55;;;7.70;99.90;;;;;;5067085;28;20462;-72
2022/01/29 05:55:39;;;;;;;74.40;43.42;;;7.70;99.90;;;;;;5074607;28;20044;-74
2022/01/29 05:58:04;;;;;;;70.55;42.65;;;7.70;99.90;;;;;;5082097;28;20044;-73
2022/01/29 06:00:30;;;;;;;67.97;42.03;;;7.70;99.90;;;;;;5063127;28;20688;-74
2022/01/29 06:03:14;;;;;;;68.95;41.78;;;7.70;99.90;;;;;;5067912;28;20143;-74
2022/01/29 06:05:39;;;;;;;66.03;41.08;;;7.80;99.90;;;;;;5061022;28;20071;-73
2022/01/29 06:08:05;;;;;;;62.50;40.10;;;7.80;99.90;;;;;;5080882;28;20040;-74
2022/01/29 06:10:31;;;;;;;60.70;40.63;;;7.80;99.90;;;;;;5053221;28;20396;-73
2022/01/29 06:13:11;;;;;;;58.47;38.47;;;7.80;99.90;;;;;;5057122;28;20063;-73
2022/01/29 06:15:43;;;;;;;62.50;39.65;;;7.90;99.90;;;;;;5061536;28;20603;-74
2022/01/29 06:18:12;;;;;;;62.25;39.85;;;7.90;99.90;;;;;;5100660;28;20045;-73
2022/01/29 06:20:38;;;;;;;54.45;38.53;;;7.90;99.90;;;;;;5066231;28;20140;-73
2022/01/29 06:23:04;;;;;;;56.10;37.67;;;7.90;99.90;;;;;;5099038;28;20406;-74
2022/01/29 06:25:30;;;;;;;55.20;36.22;;;8.00;99.90;;;;;;5073354;28;20048;-74
2022/01/29 06:27:56;;;;;;;51.08;35.88;;;8.00;99.90;;;;;;5099317;28;20059;-73
2022/01/29 06:30:22;;;;;;;53.45;36.88;;;8.00;99.90;;;;;;5081592;28;20080;-74
2022/01/29 06:32:47;;;;;;;52.63;37.00;;;8.00;99.90;;;;;;5060744;28;20033;-74
2022/01/29 06:35:13;;;;;;;51.38;36.20;;;8.00;99.90;;;;;;5080965;28;20040;-74
2022/01/29 06:37:39;;;;;;;54.38;35.92;;;8.00;99.90;;;;;;5071638;28;20041;-76
2022/01/29 06:40:05;;;;;;;57.08;35.22;;;8.10;99.90;;;;;;5100683;28;20052;-79
2022/01/29 06:42:31;;;;;;;44.07;33.87;;;8.10;99.90;;;;;;5071506;28;20043;-74
2022/01/29 06:44:57;;;;;;;52.17;35.58;;;8.10;99.90;;;;;;5058838;28;20079;-74
2022/01/29 06:47:23;;;;;;;54.08;34.78;;;8.10;99.90;;;;;;5065548;28;20075;-74
2022/01/29 06:49:48;;;;;;;52.25;34.75;;;8.10;99.90;;;;;;5063681;28;20136;-74
2022/01/29 06:52:14;;;;;;;50.05;32.53;;;8.10;99.90;;;;;;5083955;28;20818;-75
2022/01/29 06:54:39;;;;;;;49.95;31.98;;;8.20;99.90;;;;;;5064804;28;20041;-74
2022/01/29 06:57:06;;;;;;;45.47;32.15;;;8.20;99.90;;;;;;5060994;28;20044;-74
2022/01/29 06:59:31;;;;;;;46.92;32.88;;;8.20;99.90;;;;;;5058833;28;20044;-74
2022/01/29 07:01:57;;;;;;;48.63;31.92;;;8.20;99.90;;;;;;5066459;28;21235;-74
2022/01/29 07:04:22;;;;;;;50.38;31.73;;;8.20;99.90;;;;;;5055802;28;20059;-74
2022/01/29 07:06:48;;;;;;;48.08;32.03;;;8.30;99.90;;;;;;5064635;28;20052;-73
2022/01/29 07:09:14;;;;;;;42.63;29.85;;;8.20;99.90;;;;;;5066461;28;20483;-73
2022/01/29 07:11:43;;;;;;;42.00;29.10;;;8.30;99.90;;;;;;5066344;28;20044;-74
2022/01/29 07:14:08;;;;;;;40.33;28.60;;;8.30;99.90;;;;;;5062667;28;20055;-74
2022/01/29 07:16:36;;;;;;;37.72;28.08;;;8.30;99.90;;;;;;5064093;28;20478;-74
2022/01/29 07:19:03;;;;;;;42.85;26.92;;;8.30;99.90;;;;;;5059301;28;20059;-74
2022/01/29 07:21:29;;;;;;;39.72;27.90;;;8.30;99.90;;;;;;5071440;28;20049;-73
2022/01/29 07:23:55;;;;;;;38.33;27.05;;;8.40;99.90;;;;;;5049492;28;20492;-73
2022/01/29 07:26:20;;;;;;;36.85;26.98;;;8.40;99.90;;;;;;5062069;28;20049;-73
2022/01/29 07:28:46;;;;;;;37.53;25.80;;;8.40;99.90;;;;;;5057012;28;20047;-74
2022/01/29 07:31:12;;;;;;;39.67;25.60;;;8.40;99.90;;;;;;5079889;28;20395;-73
2022/01/29 07:33:37;;;;;;;35.20;26.25;;;8.50;99.90;;;;;;5073117;28;20467;-74
2022/01/29 07:36:03;;;;;;;38.40;25.33;;;8.50;99.90;;;;;;5072339;28;20079;-73
2022/01/29 07:38:29;;;;;;;32.40;24.75;;;8.40;99.90;;;;;;5059125;28;20060;-73
2022/01/29 07:40:54;;;;;;;34.42;25.05;;;8.50;99.90;;;;;;5067111;28;20056;-73
2022/01/29 07:43:20;;;;;;;35.17;25.10;;;8.50;99.90;;;;;;5052125;28;20048;-73
2022/01/29 07:45:46;;;;;;;31.80;22.70;;;8.50;99.90;;;;;;5076358;28;20051;-74
2022/01/29 07:48:11;;;;;;;34.03;24.35;;;8.50;99.90;;;;;;5059706;28;20041;-74
2022/01/29 07:50:37;;;;;;;39.33;24.52;;;8.50;99.90;;;;;;5075151;28;20052;-73
2022/01/29 07:53:04;;;;;;;33.03;24.23;;;8.50;99.90;;;;;;5084418;28;21734;-73
2022/01/29 07:55:30;;;;;;;39.83;26.17;;;8.50;99.90;;;;;;5059071;28;20045;-74
2022/01/29 07:58:01;;;;;;;35.75;25.25;;;8.60;99.90;;;;;;5069796;28;20048;-73
2022/01/29 08:00:27;;;;;;;36.35;24.65;;;8.60;99.90;;;;;;5079289;28;20128;-73
2022/01/29 08:02:53;;;;;;;37.70;25.55;;;8.60;99.90;;;;;;5086389;28;20036;-73
2022/01/29 08:05:18;;;;;;;38.63;26.00;;;8.50;99.90;;;;;;5065185;28;20059;-73
2022/01/29 08:07:44;;;;;;;36.13;25.63;;;8.60;99.90;;;;;;5098557;28;20044;-74
2022/01/29 08:10:10;;;;;;;34.97;25.80;;;8.50;99.90;;;;;;5065758;28;20131;-74
2022/01/29 08:12:35;;;;;;;35.58;25.83;;;8.50;99.90;;;;;;5099298;28;20620;-74
2022/01/29 08:15:03;;;;;;;38.53;25.85;;;8.50;99.90;;;;;;5064564;28;20186;-73
2022/01/29 08:17:29;;;;;;;35.50;24.95;;;8.60;99.90;;;;;;5065312;28;20064;-73
2022/01/29 08:19:55;;;;;;;38.88;25.38;;;8.60;99.90;;;;;;5068220;28;20114;-74
2022/01/29 08:22:20;;;;;;;35.22;26.15;;;8.60;99.90;;;;;;5056512;28;20040;-74
2022/01/29 08:24:46;;;;;;;37.47;26.35;;;8.60;99.90;;;;;;5068248;28;20483;-74
2022/01/29 08:27:12;;;;;;;36.75;26.50;;;8.60;99.90;;;;;;5083577;28;20506;-73
2022/01/29 08:29:37;;;;;;;36.58;25.15;;;8.60;99.90;;;;;;5070040;28;20047;-74
2022/01/29 08:32:03;;;;;;;33.50;23.52;;;8.60;99.90;;;;;;5054492;28;20500;-74
2022/01/29 08:34:29;;;;;;;36.78;24.60;;;8.60;99.90;;;;;;5062775;28;20112;-73
2022/01/29 08:36:58;;;;;;;31.20;23.30;;;8.60;99.90;;;;;;5069623;28;20131;-75
2022/01/29 08:39:24;;;;;;;31.63;23.55;;;8.60;99.90;;;;;;5063677;28;20097;-73
2022/01/29 08:41:50;;;;;;;32.30;23.47;;;8.60;99.90;;;;;;5063696;28;20040;-72
2022/01/29 08:44:16;;;;;;;30.33;22.13;;;8.70;99.90;;;;;;5097903;28;20045;-72
2022/01/29 08:46:42;;;;;;;34.25;22.08;;;8.70;99.90;;;;;;5070289;28;20043;-71
2022/01/29 08:49:07;;;;;;;29.55;20.48;;;8.70;99.90;;;;;;5083981;28;20695;-71
2022/01/29 08:51:33;;;;;;;29.98;21.13;;;8.70;99.90;;;;;;5069817;28;20040;-71
2022/01/29 08:53:59;;;;;;;30.58;21.25;;;8.70;99.90;;;;;;5103025;28;20059;-72
2022/01/29 08:56:24;;;;;;;25.67;19.60;;;8.70;99.90;;;;;;5067579;28;20407;-71
2022/01/29 08:58:50;;;;;;;31.90;19.65;;;8.80;99.90;;;;;;5069303;28;20526;-72
2022/01/29 09:01:16;;;;;;;27.15;18.25;;;8.80;99.90;;;;;;5070320;28;20190;-71
2022/01/29 09:03:41;;;;;;;27.27;18.77;;;8.80;99.90;;;;;;5068622;28;20032;-71
2022/01/29 09:06:07;;;;;;;29.88;19.20;;;8.80;99.90;;;;;;5068462;28;20040;-72
2022/01/29 09:08:33;;;;;;;26.30;18.90;;;8.90;99.90;;;;;;5060114;28;20534;-72
2022/01/29 09:10:58;;;;;;;24.13;18.10;;;8.90;99.90;;;;;;5068333;28;20082;-72
2022/01/29 09:13:28;;;;;;;23.42;17.33;;;8.90;99.90;;;;;;5058078;28;20048;-73
2022/01/29 09:15:55;;;;;;;23.13;17.30;;;9.00;99.90;;;;;;5050762;28;20120;-73
2022/01/29 09:18:20;;;;;;;22.98;17.15;;;9.00;99.90;;;;;;5055703;28;20052;-72
2022/01/29 09:20:46;;;;;;;23.45;16.05;;;9.00;99.90;;;;;;5056575;28;20140;-72
2022/01/29 09:23:12;;;;;;;23.75;17.40;;;9.00;99.90;;;;;;5075361;28;20123;-72
2022/01/29 09:25:38;;;;;;;26.25;17.08;;;9.00;99.90;;;;;;5068739;28;20131;-72
2022/01/29 09:28:05;;;;;;;24.95;17.02;;;9.00;99.90;;;;;;5100668;28;20460;-72
2022/01/29 09:30:32;;;;;;;21.42;16.85;;;9.00;99.90;;;;;;5068276;28;20056;-72
2022/01/29 09:32:57;;;;;;;21.73;16.92;;;9.00;99.90;;;;;;5067274;28;20115;-72
2022/01/29 09:35:23;;;;;;;23.95;17.85;;;9.00;99.90;;;;;;5067243;28;20751;-73
2022/01/29 09:37:49;;;;;;;25.85;17.77;;;9.00;99.90;;;;;;5067550;28;20045;-73
2022/01/29 09:40:16;;;;;;;23.63;17.75;;;9.00;99.90;;;;;;5069620;28;20063;-73
2022/01/29 09:42:45;;;;;;;25.10;17.70;;;9.00;99.90;;;;;;5069379;28;20462;-74
2022/01/29 09:45:15;;;;;;;24.98;17.83;;;9.00;99.90;;;;;;5066793;28;20510;-74
2022/01/29 09:47:42;;;;;;;22.85;17.65;;;9.10;99.90;;;;;;5069364;28;20110;-74
2022/01/29 09:50:09;;;;;;;23.70;17.17;;;9.00;99.90;;;;;;5102051;28;20055;-74
2022/01/29 09:52:35;;;;;;;24.10;17.05;;;9.10;99.90;;;;;;5066054;28;20494;-73
2022/01/29 09:55:01;;;;;;;22.67;16.45;;;9.10;99.90;;;;;;5061480;28;20076;-73
2022/01/29 09:57:27;;;;;;;20.08;16.05;;;9.10;99.90;;;;;;5099645;28;20106;-73
2022/01/29 09:59:53;;;;;;;19.38;15.60;;;9.10;99.90;;;;;;5102636;28;20732;-73
2022/01/29 10:02:19;;;;;;;18.80;14.35;;;9.20;99.90;;;;;;5068225;28;20037;-73
2022/01/29 10:04:54;;;;;;;17.35;14.57;;;9.20;99.90;;;;;;5068560;28;20090;-73
2022/01/29 10:07:25;;;;;;;17.60;13.57;;;9.20;99.90;;;;;;5067934;28;20099;-73
2022/01/29 10:09:51;;;;;;;20.15;13.75;;;9.30;99.90;;;;;;5069318;28;20056;-73
2022/01/29 10:12:28;;;;;;;19.63;14.15;;;9.30;99.90;;;;;;5067910;28;20456;-73
2022/01/29 10:15:04;;;;;;;;;;;9.30;99.90;;;;;;5068779;28;20059;-73
2022/01/29 10:17:46;;;;;;;16.35;12.00;;;9.40;99.90;;;;;;5059775;28;19935;-72
2022/01/29 10:20:24;;;;;;;19.85;13.55;;;9.40;99.90;;;;;;5066096;28;20854;-72
2022/01/29 10:22:55;;;;;;;16.02;12.02;;;9.40;99.90;;;;;;5068940;28;20044;-70
2022/01/29 10:25:28;;;;;;;17.15;12.02;;;9.40;99.90;;;;;;5102381;28;20052;-72
2022/01/29 10:28:21;;;;;;;15.52;12.27;;;9.50;99.90;;;;;;5101149;28;20609;-72
2022/01/29 10:30:49;;;;;;;14.68;10.30;;;9.50;99.90;;;;;;5080490;28;20044;-73
2022/01/29 10:33:30;;;;;;;15.82;10.85;;;9.50;99.90;;;;;;5054107;28;20041;-72
2022/01/29 10:36:04;;;;;;;14.98;10.27;;;9.50;99.90;;;;;;5065661;28;20044;-74
2022/01/29 10:38:51;;;;;;;13.25;10.10;;;9.60;99.90;;;;;;5062725;28;20106;-73
2022/01/29 10:41:27;;;;;;;14.30;10.43;;;9.60;99.90;;;;;;5072294;28;20044;-73
2022/01/29 10:46:39;;;;;;;13.45;9.18;;;9.70;99.90;;;;;;5068019;28;20538;-73
2022/01/29 10:49:05;;;;;;;13.43;8.43;;;9.70;99.90;;;;;;5054068;28;20071;-73
2022/01/29 10:51:33;;;;;;;15.75;8.80;;;9.70;99.90;;;;;;5069199;28;20511;-75
2022/01/29 10:54:18;;;;;;;12.07;8.70;;;9.80;99.90;;;;;;5065240;28;20056;-75
2022/01/29 10:56:56;;;;;;;13.48;8.38;;;9.80;99.90;;;;;;5068017;28;20052;-74
2022/01/29 10:59:23;;;;;;;16.65;8.88;;;9.80;99.90;;;;;;5069147;28;20538;-73
2022/01/29 11:01:55;;;;;;;14.10;8.90;;;9.80;99.90;;;;;;5068362;28;20052;-74
2022/01/29 11:04:21;;;;;;;17.00;8.77;;;9.90;99.90;;;;;;5055468;28;20084;-74
2022/01/29 11:06:50;;;;;;;12.15;8.70;;;9.90;99.90;;;;;;5067677;28;20094;-73
2022/01/29 11:09:17;;;;;;;19.08;8.40;;;9.90;99.90;;;;;;5066493;28;20666;-73
2022/01/29 11:11:45;;;;;;;10.60;8.03;;;9.90;99.90;;;;;;5067735;28;20047;-73
2022/01/29 11:14:18;;;;;;;13.55;7.70;;;9.90;99.90;;;;;;5063645;28;20066;-72
2022/01/29 11:16:45;;;;;;;12.20;7.53;;;9.90;99.90;;;;;;5065710;28;20053;-72
2022/01/29 11:19:11;;;;;;;13.20;7.50;;;10.00;99.90;;;;;;5060260;28;20465;-72
2022/01/29 11:21:40;;;;;;;;;;;10.00;99.90;;;;;;5068414;28;20219;-72
2022/01/29 11:24:06;;;;;;;12.80;7.57;;;10.00;99.90;;;;;;5099198;28;19978;-72
2022/01/29 11:26:33;;;;;;;12.90;6.90;;;10.00;99.90;;;;;;5068603;28;20045;-72
2022/01/29 11:29:30;;;;;;;15.68;7.10;;;10.00;99.90;;;;;;5063026;28;20040;-72
2022/01/29 11:32:20;;;;;;;15.70;7.13;;;10.10;99.90;;;;;;5059221;28;20044;-72
2022/01/29 11:35:13;;;;;;;10.43;6.07;;;10.10;99.90;;;;;;5053688;28;20059;-75
2022/01/29 11:38:06;;;;;;;13.07;6.05;;;10.10;99.90;;;;;;5084357;28;20079;-72
2022/01/29 11:40:44;;;;;;;11.98;6.30;;;10.10;99.90;;;;;;5048552;28;20041;-72
2022/01/29 11:43:09;;;;;;;;;;;10.20;99.90;;;;;;5067683;28;20036;-73
2022/01/29 11:45:38;;;;;;;12.50;5.60;;;10.10;99.90;;;;;;5066172;28;20410;-73
2022/01/29 11:48:06;;;;;;;10.23;5.10;;;10.10;99.90;;;;;;5054558;28;20120;-72
2022/01/29 11:50:32;;;;;;;13.60;5.32;;;10.10;99.90;;;;;;5081006;28;20592;-72
2022/01/29 11:53:00;;;;;;;13.70;5.30;;;10.10;99.90;;;;;;5079639;28;20132;-74
2022/01/29 11:55:55;;;;;;;9.40;4.85;;;10.10;99.90;;;;;;5064064;28;20135;-73
2022/01/29 11:58:29;;;;;;;9.63;4.63;;;10.10;99.90;;;;;;5023970;28;20057;-73
2022/01/29 12:00:56;;;;;;;11.45;4.82;;;10.20;99.90;;;;;;5046961;28;20051;-73
2022/01/29 12:03:34;;;;;;;11.50;4.30;;;10.20;99.90;;;;;;5081564;28;20425;-74
2022/01/29 12:06:28;;;;;;;8.68;3.85;;;10.20;99.90;;;;;;5063025;28;20057;-73
2022/01/29 12:08:58;;;;;;;8.85;3.67;;;10.20;99.90;;;;;;5064697;28;20103;-74
2022/01/29 12:11:25;;;;;;;8.25;3.40;;;10.30;99.90;;;;;;5059389;28;20045;-72
2022/01/29 12:14:13;;;;;;;8.70;3.80;;;10.30;99.90;;;;;;5066050;28;20090;-73
2022/01/29 12:17:09;;;;;;;8.32;3.20;;;10.30;99.90;;;;;;5050645;28;20092;-71
2022/01/29 12:19:45;;;;;;;6.60;3.10;;;10.40;99.90;;;;;;5072312;28;20056;-71
2022/01/29 12:22:28;;;;;;;10.88;3.30;;;10.40;99.90;;;;;;5061193;28;20036;-71
2022/01/29 12:24:56;;;;;;;7.07;3.13;;;10.40;99.90;;;;;;5066626;28;20129;-71
2022/01/29 12:27:59;;;;;;;11.68;3.95;;;10.40;99.90;;;;;;5070540;28;20119;-71
2022/01/29 12:30:36;;;;;;;6.60;2.70;;;10.40;99.90;;;;;;5063074;28;20438;-70
2022/01/29 12:33:07;;;;;;;7.65;2.63;;;10.40;99.90;;;;;;5066593;28;20040;-71
2022/01/29 12:35:36;;;;;;;9.52;3.63;;;10.40;99.90;;;;;;5065185;28;20395;-72
2022/01/29 12:38:06;;;;;;;7.07;2.95;;;10.50;99.90;;;;;;5077044;28;20048;-72
2022/01/29 12:40:38;;;;;;;7.45;2.70;;;10.50;99.90;;;;;;5066171;28;20178;-73
2022/01/29 12:43:21;;;;;;;10.40;3.30;;;10.50;99.90;;;;;;5076475;28;20037;-72
2022/01/29 12:45:48;;;;;;;9.32;2.95;;;10.50;99.90;;;;;;5087286;28;20049;-72
2022/01/29 12:48:14;;;;;;;8.32;2.65;;;10.50;99.90;;;;;;5065341;28;20045;-72
2022/01/29 12:50:41;;;;;;;9.75;3.10;;;10.60;99.90;;;;;;5066007;28;20055;-71
2022/01/29 12:53:19;;;;;;;8.35;3.00;;;10.60;99.90;;;;;;5074629;28;20049;-71
2022/01/29 12:56:06;;;;;;;10.07;3.40;;;10.60;99.90;;;;;;5064416;28;20062;-71
2022/01/29 12:58:39;;;;;;;9.57;2.90;;;10.60;99.90;;;;;;5065504;28;20133;-72
2022/01/29 13:01:07;;;;;;;6.78;2.42;;;10.60;99.90;;;;;;5066906;28;20559;-73